sensor_id;sensor_type;location;lat;lon;timestamp;pressure;altitude;pressure_sealevel;temperature;humidity
71716;BME280;59568;52.128;5.434;2024-03-23T00:53:45;101192.16;;;6.54;100.00
71716;BME280;59568;52.128;5.434;2024-03-23T00:56:10;101192.94;;;6.55;100.00
71716;BME280;59568;52.128;5.434;2024-03-23T00:58:39;101189.56;;;6.54;100.00
71716;BME280;59568;52.128;5.434;2024-03-23T01:01:04;101191.63;;;6.52;100.00
71716;BME280;59568;52.128;5.434;2024-03-23T01:03:30;101196.84;;;6.52;100.00
71716;BME280;59568;52.128;5.434;2024-03-23T01:06:00;101184.88;;;6.51;100.00
71716;BME280;59568;52.128;5.434;2024-03-23T01:08:26;101188.50;;;6.50;100.00
71716;BME280;59568;52.128;5.434;2024-03-23T01:11:00;101186.94;;;6.49;100.00
71716;BME280;59568;52.128;5.434;2024-03-23T01:13:26;101189.28;;;6.51;100.00
71716;BME280;59568;52.128;5.434;2024-03-23T01:15:53;101182.28;;;6.51;100.00
71716;BME280;59568;52.128;5.434;2024-03-23T01:18:20;101179.69;;;6.51;100.00
71716;BME280;59568;52.128;5.434;2024-03-23T01:20:46;101178.66;;;6.52;100.00
71716;BME280;59568;52.128;5.434;2024-03-23T01:23:12;101169.53;;;6.50;100.00
71716;BME280;59568;52.128;5.434;2024-03-23T01:25:38;101167.75;;;6.50;100.00
71716;BME280;59568;52.128;5.434;2024-03-23T01:28:04;101167.47;;;6.52;100.00
71716;BME280;59568;52.128;5.434;2024-03-23T01:30:32;101165.69;;;6.52;100.00
71716;BME280;59568;52.128;5.434;2024-03-23T01:32:58;101158.91;;;6.51;100.00
71716;BME280;59568;52.128;5.434;2024-03-23T01:35:23;101154.75;;;6.50;100.00
71716;BME280;59568;52.128;5.434;2024-03-23T01:37:49;101147.75;;;6.51;100.00
71716;BME280;59568;52.128;5.434;2024-03-23T01:40:16;101138.66;;;6.48;100.00
71716;BME280;59568;52.128;5.434;2024-03-23T01:42:42;101138.34;;;6.45;100.00
71716;BME280;59568;52.128;5.434;2024-03-23T01:45:09;101133.66;;;6.42;100.00
71716;BME280;59568;52.128;5.434;2024-03-23T01:47:37;101129.47;;;6.35;100.00
71716;BME280;59568;52.128;5.434;2024-03-23T01:50:04;101130.75;;;6.33;100.00
71716;BME280;59568;52.128;5.434;2024-03-23T01:52:30;101122.66;;;6.24;100.00
71716;BME280;59568;52.128;5.434;2024-03-23T01:54:55;101125.19;;;6.19;100.00
71716;BME280;59568;52.128;5.434;2024-03-23T01:57:21;101128.25;;;6.11;100.00
71716;BME280;59568;52.128;5.434;2024-03-23T01:59:48;101122.47;;;6.04;100.00
71716;BME280;59568;52.128;5.434;2024-03-23T02:02:13;101115.16;;;5.95;100.00
71716;BME280;59568;52.128;5.434;2024-03-23T02:04:39;101124.94;;;5.93;100.00
71716;BME280;59568;52.128;5.434;2024-03-23T02:07:08;101118.16;;;5.87;100.00
71716;BME280;59568;52.128;5.434;2024-03-23T02:09:34;101116.00;;;5.79;100.00
71716;BME280;59568;52.128;5.434;2024-03-23T02:12:01;101110.25;;;5.72;100.00
71716;BME280;59568;52.128;5.434;2024-03-23T02:14:27;101114.38;;;5.68;100.00
71716;BME280;59568;52.128;5.434;2024-03-23T02:16:53;101112.25;;;5.65;100.00
71716;BME280;59568;52.128;5.434;2024-03-23T02:19:18;101122.59;;;5.59;100.00
71716;BME280;59568;52.128;5.434;2024-03-23T02:21:44;101120.25;;;5.58;100.00
71716;BME280;59568;52.128;5.434;2024-03-23T02:24:09;101117.03;;;5.51;100.00
71716;BME280;59568;52.128;5.434;2024-03-23T02:26:36;101111.81;;;5.46;100.00
71716;BME280;59568;52.128;5.434;2024-03-23T02:29:02;101112.31;;;5.43;100.00
71716;BME280;59568;52.128;5.434;2024-03-23T02:31:28;101110.44;;;5.38;100.00
71716;BME280;59568;52.128;5.434;2024-03-23T02:33:53;101102.59;;;5.33;100.00
71716;BME280;59568;52.128;5.434;2024-03-23T02:36:19;101095.34;;;5.30;100.00
71716;BME280;59568;52.128;5.434;2024-03-23T02:38:46;101095.25;;;5.25;100.00
71716;BME280;59568;52.128;5.434;2024-03-23T02:41:12;101095.47;;;5.18;100.00
71716;BME280;59568;52.128;5.434;2024-03-23T02:43:38;101094.41;;;5.19;100.00
71716;BME280;59568;52.128;5.434;2024-03-23T02:46:03;101099.56;;;5.14;100.00
71716;BME280;59568;52.128;5.434;2024-03-23T02:48:29;101098.47;;;5.10;100.00
71716;BME280;59568;52.128;5.434;2024-03-23T02:50:55;101093.78;;;5.07;100.00
71716;BME280;59568;52.128;5.434;2024-03-23T02:53:21;101096.09;;;5.03;100.00
71716;BME280;59568;52.128;5.434;2024-03-23T02:55:47;101097.09;;;5.02;100.00
71716;BME280;59568;52.128;5.434;2024-03-23T02:58:12;101101.72;;;5.00;100.00
71716;BME280;59568;52.128;5.434;2024-03-23T03:00:38;101100.88;;;4.94;100.00
71716;BME280;59568;52.128;5.434;2024-03-23T03:03:04;101095.38;;;4.91;100.00
71716;BME280;59568;52.128;5.434;2024-03-23T03:05:31;101091.25;;;4.90;100.00
71716;BME280;59568;52.128;5.434;2024-03-23T03:07:56;101103.66;;;4.88;100.00
71716;BME280;59568;52.128;5.434;2024-03-23T03:10:22;101097.63;;;4.82;100.00
71716;BME280;59568;52.128;5.434;2024-03-23T03:12:48;101091.34;;;4.78;100.00
71716;BME280;59568;52.128;5.434;2024-03-23T03:15:13;101098.59;;;4.76;100.00
71716;BME280;59568;52.128;5.434;2024-03-23T03:17:39;101090.75;;;4.71;100.00
71716;BME280;59568;52.128;5.434;2024-03-23T03:20:05;101100.81;;;4.67;100.00
71716;BME280;59568;52.128;5.434;2024-03-23T03:22:31;101107.22;;;4.65;100.00
71716;BME280;59568;52.128;5.434;2024-03-23T03:24:57;101101.75;;;4.61;100.00
71716;BME280;59568;52.128;5.434;2024-03-23T03:27:23;101103.25;;;4.57;100.00
71716;BME280;59568;52.128;5.434;2024-03-23T03:29:48;101107.91;;;4.55;100.00
71716;BME280;59568;52.128;5.434;2024-03-23T03:32:14;101091.75;;;4.48;100.00
71716;BME280;59568;52.128;5.434;2024-03-23T03:34:40;101102.88;;;4.48;100.00
71716;BME280;59568;52.128;5.434;2024-03-23T03:37:05;101094.25;;;4.43;100.00
71716;BME280;59568;52.128;5.434;2024-03-23T03:39:31;101085.94;;;4.40;100.00
71716;BME280;59568;52.128;5.434;2024-03-23T03:41:56;101085.56;;;4.32;100.00
71716;BME280;59568;52.128;5.434;2024-03-23T03:44:22;101080.06;;;4.28;100.00
71716;BME280;59568;52.128;5.434;2024-03-23T03:46:47;101079.25;;;4.23;100.00
71716;BME280;59568;52.128;5.434;2024-03-23T03:49:13;101079.16;;;4.17;100.00
71716;BME280;59568;52.128;5.434;2024-03-23T03:51:39;101076.25;;;4.14;100.00
71716;BME280;59568;52.128;5.434;2024-03-23T03:54:05;101074.13;;;4.11;100.00
71716;BME280;59568;52.128;5.434;2024-03-23T03:56:30;101064.19;;;4.03;100.00
71716;BME280;59568;52.128;5.434;2024-03-23T03:58:56;101070.91;;;4.04;100.00
71716;BME280;59568;52.128;5.434;2024-03-23T04:01:22;101069.03;;;3.99;100.00
71716;BME280;59568;52.128;5.434;2024-03-23T04:03:47;101074.69;;;3.96;100.00
71716;BME280;59568;52.128;5.434;2024-03-23T04:06:18;101074.34;;;3.92;100.00
71716;BME280;59568;52.128;5.434;2024-03-23T04:08:44;101063.94;;;3.87;100.00
71716;BME280;59568;52.128;5.434;2024-03-23T04:11:10;101070.13;;;3.86;100.00
71716;BME280;59568;52.128;5.434;2024-03-23T04:13:35;101064.88;;;3.81;100.00
71716;BME280;59568;52.128;5.434;2024-03-23T04:16:02;101058.38;;;3.78;100.00
71716;BME280;59568;52.128;5.434;2024-03-23T04:18:27;101056.25;;;3.75;100.00
71716;BME280;59568;52.128;5.434;2024-03-23T04:20:53;101053.34;;;3.72;100.00
71716;BME280;59568;52.128;5.434;2024-03-23T04:23:18;101058.53;;;3.72;100.00
71716;BME280;59568;52.128;5.434;2024-03-23T04:25:44;101055.38;;;3.70;100.00
71716;BME280;59568;52.128;5.434;2024-03-23T04:28:10;101054.59;;;3.69;100.00
71716;BME280;59568;52.128;5.434;2024-03-23T04:30:35;101053.06;;;3.68;100.00
71716;BME280;59568;52.128;5.434;2024-03-23T04:33:02;101054.06;;;3.67;100.00
71716;BME280;59568;52.128;5.434;2024-03-23T04:35:28;101063.06;;;3.65;100.00
71716;BME280;59568;52.128;5.434;2024-03-23T04:37:54;101051.16;;;3.64;100.00
71716;BME280;59568;52.128;5.434;2024-03-23T04:40:21;101050.38;;;3.63;100.00
71716;BME280;59568;52.128;5.434;2024-03-23T04:42:48;101051.16;;;3.64;100.00
71716;BME280;59568;52.128;5.434;2024-03-23T04:45:13;101056.31;;;3.64;100.00
71716;BME280;59568;52.128;5.434;2024-03-23T04:47:39;101056.31;;;3.64;100.00
71716;BME280;59568;52.128;5.434;2024-03-23T04:50:05;101058.13;;;3.63;100.00
71716;BME280;59568;52.128;5.434;2024-03-23T04:52:30;101057.91;;;3.65;100.00
71716;BME280;59568;52.128;5.434;2024-03-23T04:54:56;101056.97;;;3.71;100.00
71716;BME280;59568;52.128;5.434;2024-03-23T04:57:22;101051.31;;;3.74;100.00
71716;BME280;59568;52.128;5.434;2024-03-23T04:59:48;101058.06;;;3.75;100.00
71716;BME280;59568;52.128;5.434;2024-03-23T05:02:14;101055.94;;;3.72;100.00
71716;BME280;59568;52.128;5.434;2024-03-23T05:04:40;101047.09;;;3.68;100.00
71716;BME280;59568;52.128;5.434;2024-03-23T05:07:06;101052.97;;;3.63;100.00
71716;BME280;59568;52.128;5.434;2024-03-23T05:09:32;101056.00;;;3.60;100.00
71716;BME280;59568;52.128;5.434;2024-03-23T05:12:01;101053.34;;;3.55;100.00
71716;BME280;59568;52.128;5.434;2024-03-23T05:14:28;101056.84;;;3.49;100.00
71716;BME280;59568;52.128;5.434;2024-03-23T05:16:54;101057.06;;;3.47;100.00
71716;BME280;59568;52.128;5.434;2024-03-23T05:19:20;101050.81;;;3.43;100.00
71716;BME280;59568;52.128;5.434;2024-03-23T05:21:45;101047.91;;;3.39;100.00
71716;BME280;59568;52.128;5.434;2024-03-23T05:24:11;101047.34;;;3.37;100.00
71716;BME280;59568;52.128;5.434;2024-03-23T05:26:38;101053.00;;;3.34;100.00
71716;BME280;59568;52.128;5.434;2024-03-23T05:29:04;101054.00;;;3.33;100.00
71716;BME280;59568;52.128;5.434;2024-03-23T05:31:30;101055.78;;;3.33;100.00
71716;BME280;59568;52.128;5.434;2024-03-23T05:33:56;101061.41;;;3.30;100.00
71716;BME280;59568;52.128;5.434;2024-03-23T05:36:22;101055.94;;;3.26;100.00
71716;BME280;59568;52.128;5.434;2024-03-23T05:38:49;101058.75;;;3.25;100.00
71716;BME280;59568;52.128;5.434;2024-03-23T05:41:15;101060.84;;;3.28;100.00
71716;BME280;59568;52.128;5.434;2024-03-23T05:43:41;101057.28;;;3.29;100.00
71716;BME280;59568;52.128;5.434;2024-03-23T05:46:06;101057.91;;;3.36;100.00
71716;BME280;59568;52.128;5.434;2024-03-23T05:48:33;101068.19;;;3.48;100.00
71716;BME280;59568;52.128;5.434;2024-03-23T05:50:59;101058.84;;;3.58;100.00
71716;BME280;59568;52.128;5.434;2024-03-23T05:53:24;101053.06;;;3.68;100.00
71716;BME280;59568;52.128;5.434;2024-03-23T05:55:51;101052.91;;;3.75;100.00
71716;BME280;59568;52.128;5.434;2024-03-23T05:58:19;101047.78;;;3.80;100.00
71716;BME280;59568;52.128;5.434;2024-03-23T06:00:45;101047.56;;;3.82;100.00
71716;BME280;59568;52.128;5.434;2024-03-23T06:03:11;101049.38;;;3.81;100.00
71716;BME280;59568;52.128;5.434;2024-03-23T06:05:37;101051.47;;;3.84;100.00
71716;BME280;59568;52.128;5.434;2024-03-23T06:08:03;101044.28;;;3.86;100.00
71716;BME280;59568;52.128;5.434;2024-03-23T06:10:29;101045.06;;;3.87;100.00
71716;BME280;59568;52.128;5.434;2024-03-23T06:12:54;101055.41;;;3.87;100.00
71716;BME280;59568;52.128;5.434;2024-03-23T06:15:21;101050.25;;;3.87;100.00
71716;BME280;59568;52.128;5.434;2024-03-23T06:17:48;101047.88;;;3.85;100.00
71716;BME280;59568;52.128;5.434;2024-03-23T06:20:14;101049.94;;;3.83;100.00
71716;BME280;59568;52.128;5.434;2024-03-23T06:22:40;101056.09;;;3.82;100.00
71716;BME280;59568;52.128;5.434;2024-03-23T06:25:06;101049.38;;;3.81;100.00
71716;BME280;59568;52.128;5.434;2024-03-23T06:27:32;101054.59;;;3.86;100.00
71716;BME280;59568;52.128;5.434;2024-03-23T06:29:59;101038.72;;;3.94;100.00
71716;BME280;59568;52.128;5.434;2024-03-23T06:32:27;101037.25;;;3.98;100.00
71716;BME280;59568;52.128;5.434;2024-03-23T06:34:53;101033.81;;;4.49;100.00
71716;BME280;59568;52.128;5.434;2024-03-23T06:37:18;101031.53;;;5.24;100.00
71716;BME280;59568;52.128;5.434;2024-03-23T06:39:45;101034.53;;;5.70;100.00
71716;BME280;59568;52.128;5.434;2024-03-23T06:42:11;101027.75;;;5.64;100.00
71716;BME280;59568;52.128;5.434;2024-03-23T06:44:37;101027.41;;;5.55;100.00
71716;BME280;59568;52.128;5.434;2024-03-23T06:47:03;101019.22;;;5.36;100.00
71716;BME280;59568;52.128;5.434;2024-03-23T06:49:28;101019.41;;;5.29;100.00
71716;BME280;59568;52.128;5.434;2024-03-23T06:51:54;101019.69;;;5.33;100.00
71716;BME280;59568;52.128;5.434;2024-03-23T06:54:20;101022.81;;;5.35;100.00
71716;BME280;59568;52.128;5.434;2024-03-23T06:56:46;101019.50;;;5.39;100.00
71716;BME280;59568;52.128;5.434;2024-03-23T06:59:13;101026.03;;;5.47;100.00
71716;BME280;59568;52.128;5.434;2024-03-23T07:01:38;101033.38;;;5.55;100.00
71716;BME280;59568;52.128;5.434;2024-03-23T07:04:04;101037.63;;;5.67;100.00
71716;BME280;59568;52.128;5.434;2024-03-23T07:06:31;101030.16;;;5.75;100.00
71716;BME280;59568;52.128;5.434;2024-03-23T07:08:56;101032.84;;;5.86;100.00
71716;BME280;59568;52.128;5.434;2024-03-23T07:11:23;101032.34;;;5.89;100.00
71716;BME280;59568;52.128;5.434;2024-03-23T07:13:51;101029.59;;;6.00;100.00
71716;BME280;59568;52.128;5.434;2024-03-23T07:16:18;101032.31;;;6.21;100.00
71716;BME280;59568;52.128;5.434;2024-03-23T07:18:46;101024.59;;;6.31;100.00
71716;BME280;59568;52.128;5.434;2024-03-23T07:21:12;101027.75;;;6.44;100.00
71716;BME280;59568;52.128;5.434;2024-03-23T07:23:37;101018.22;;;6.59;100.00
71716;BME280;59568;52.128;5.434;2024-03-23T07:26:04;101022.69;;;6.69;100.00
71716;BME280;59568;52.128;5.434;2024-03-23T07:28:31;101028.16;;;6.78;100.00
71716;BME280;59568;52.128;5.434;2024-03-23T07:31:05;101024.84;;;6.93;100.00
71716;BME280;59568;52.128;5.434;2024-03-23T07:33:31;101027.44;;;6.98;100.00
71716;BME280;59568;52.128;5.434;2024-03-23T07:35:58;101029.28;;;7.08;100.00
71716;BME280;59568;52.128;5.434;2024-03-23T07:38:26;101030.09;;;7.13;100.00
71716;BME280;59568;52.128;5.434;2024-03-23T07:40:52;101023.59;;;7.26;100.00
71716;BME280;59568;52.128;5.434;2024-03-23T07:43:22;101024.41;;;7.42;100.00
71716;BME280;59568;52.128;5.434;2024-03-23T07:45:53;101024.41;;;7.47;100.00
71716;BME280;59568;52.128;5.434;2024-03-23T07:48:21;101023.88;;;7.50;100.00
71716;BME280;59568;52.128;5.434;2024-03-23T07:51:04;101012.16;;;7.32;100.00
71716;BME280;59568;52.128;5.434;2024-03-23T07:53:31;101020.50;;;7.34;100.00
71716;BME280;59568;52.128;5.434;2024-03-23T07:55:58;101016.88;;;7.56;100.00
71716;BME280;59568;52.128;5.434;2024-03-23T07:58:26;101027.03;;;7.73;100.00
71716;BME280;59568;52.128;5.434;2024-03-23T08:00:53;101010.63;;;7.93;100.00
71716;BME280;59568;52.128;5.434;2024-03-23T08:03:19;101018.16;;;7.99;100.00
71716;BME280;59568;52.128;5.434;2024-03-23T08:05:45;101014.22;;;8.12;100.00
71716;BME280;59568;52.128;5.434;2024-03-23T08:08:11;101019.13;;;8.24;100.00
71716;BME280;59568;52.128;5.434;2024-03-23T08:10:48;101014.72;;;8.14;100.00
71716;BME280;59568;52.128;5.434;2024-03-23T08:13:14;101002.97;;;8.32;100.00
71716;BME280;59568;52.128;5.434;2024-03-23T08:15:40;101001.38;;;8.52;100.00
71716;BME280;59568;52.128;5.434;2024-03-23T08:18:07;101004.78;;;8.47;100.00
71716;BME280;59568;52.128;5.434;2024-03-23T08:20:33;100998.19;;;8.60;100.00
71716;BME280;59568;52.128;5.434;2024-03-23T08:22:59;101015.78;;;8.89;100.00
71716;BME280;59568;52.128;5.434;2024-03-23T08:25:25;101001.25;;;8.77;100.00
71716;BME280;59568;52.128;5.434;2024-03-23T08:27:51;101008.38;;;8.56;100.00
71716;BME280;59568;52.128;5.434;2024-03-23T08:30:17;101007.50;;;8.76;100.00
71716;BME280;59568;52.128;5.434;2024-03-23T08:32:44;101005.97;;;8.75;100.00
71716;BME280;59568;52.128;5.434;2024-03-23T08:35:10;101010.56;;;8.89;100.00
71716;BME280;59568;52.128;5.434;2024-03-23T09:07:53;100990.56;;;9.24;100.00
71716;BME280;59568;52.128;5.434;2024-03-23T09:10:19;100985.09;;;9.20;100.00
71716;BME280;59568;52.128;5.434;2024-03-23T09:12:44;100993.16;;;9.24;100.00
71716;BME280;59568;52.128;5.434;2024-03-23T09:15:10;101004.00;;;9.36;100.00
71716;BME280;59568;52.128;5.434;2024-03-23T09:17:36;101001.97;;;9.62;100.00
71716;BME280;59568;52.128;5.434;2024-03-23T09:20:01;101004.53;;;9.33;100.00
71716;BME280;59568;52.128;5.434;2024-03-23T09:22:27;101003.25;;;8.91;100.00
71716;BME280;59568;52.128;5.434;2024-03-23T09:24:53;101007.59;;;8.56;100.00
71716;BME280;59568;52.128;5.434;2024-03-23T09:27:20;101021.25;;;8.17;100.00
71716;BME280;59568;52.128;5.434;2024-03-23T09:29:46;101008.78;;;7.88;100.00
71716;BME280;59568;52.128;5.434;2024-03-23T09:32:11;101005.16;;;7.74;100.00
71716;BME280;59568;52.128;5.434;2024-03-23T09:34:37;100999.97;;;7.64;100.00
71716;BME280;59568;52.128;5.434;2024-03-23T09:37:02;100999.97;;;7.53;100.00
71716;BME280;59568;52.128;5.434;2024-03-23T09:39:28;100994.75;;;7.48;100.00
71716;BME280;59568;52.128;5.434;2024-03-23T09:42:38;100991.13;;;7.49;100.00
71716;BME280;59568;52.128;5.434;2024-03-23T09:49:37;101023.38;;;7.33;100.00
71716;BME280;59568;52.128;5.434;2024-03-23T09:52:03;101008.75;;;7.06;100.00
71716;BME280;59568;52.128;5.434;2024-03-23T09:54:29;101000.38;;;6.84;100.00
71716;BME280;59568;52.128;5.434;2024-03-23T09:57:00;100994.13;;;6.69;100.00
71716;BME280;59568;52.128;5.434;2024-03-23T09:59:26;100996.03;;;6.94;100.00
71716;BME280;59568;52.128;5.434;2024-03-23T10:01:55;100995.28;;;7.45;100.00
71716;BME280;59568;52.128;5.434;2024-03-23T10:04:36;100995.53;;;7.90;100.00
71716;BME280;59568;52.128;5.434;2024-03-23T10:07:18;100996.22;;;8.31;100.00
71716;BME280;59568;52.128;5.434;2024-03-23T10:10:10;100975.97;;;8.78;100.00
71716;BME280;59568;52.128;5.434;2024-03-23T10:12:44;100980.66;;;9.20;100.00
71716;BME280;59568;52.128;5.434;2024-03-23T10:15:23;100977.75;;;9.56;100.00
71716;BME280;59568;52.128;5.434;2024-03-23T10:17:51;100970.75;;;9.81;100.00
71716;BME280;59568;52.128;5.434;2024-03-23T10:20:19;100977.13;;;10.18;100.00
71716;BME280;59568;52.128;5.434;2024-03-23T10:22:46;100974.91;;;10.54;100.00
71716;BME280;59568;52.128;5.434;2024-03-23T10:25:12;100963.88;;;10.57;100.00
71716;BME280;59568;52.128;5.434;2024-03-23T10:27:39;100977.81;;;10.05;100.00
71716;BME280;59568;52.128;5.434;2024-03-23T10:30:12;100972.19;;;9.68;100.00
71716;BME280;59568;52.128;5.434;2024-03-23T10:32:38;100981.91;;;9.87;100.00
71716;BME280;59568;52.128;5.434;2024-03-23T10:35:24;100977.63;;;10.20;100.00
71716;BME280;59568;52.128;5.434;2024-03-23T10:37:51;100976.88;;;10.44;100.00
71716;BME280;59568;52.128;5.434;2024-03-23T10:40:17;100970.25;;;10.70;100.00
71716;BME280;59568;52.128;5.434;2024-03-23T10:42:47;100962.78;;;10.83;100.00
71716;BME280;59568;52.128;5.434;2024-03-23T10:45:12;100968.13;;;10.91;100.00
71716;BME280;59568;52.128;5.434;2024-03-23T10:47:38;100970.03;;;11.05;100.00
71716;BME280;59568;52.128;5.434;2024-03-23T10:50:04;100971.69;;;11.14;100.00
71716;BME280;59568;52.128;5.434;2024-03-23T10:52:33;100978.09;;;10.51;100.00
71716;BME280;59568;52.128;5.434;2024-03-23T10:55:01;100988.88;;;9.96;100.00
71716;BME280;59568;52.128;5.434;2024-03-23T10:57:34;100997.16;;;9.45;100.00
71716;BME280;59568;52.128;5.434;2024-03-23T11:00:02;101003.63;;;8.74;100.00
71716;BME280;59568;52.128;5.434;2024-03-23T11:02:28;101014.41;;;8.47;100.00
71716;BME280;59568;52.128;5.434;2024-03-23T11:04:55;100995.66;;;8.34;100.00
71716;BME280;59568;52.128;5.434;2024-03-23T11:09:58;100984.69;;;8.53;100.00
71716;BME280;59568;52.128;5.434;2024-03-23T11:12:26;100988.88;;;8.98;100.00
71716;BME280;59568;52.128;5.434;2024-03-23T11:17:20;100980.69;;;10.03;100.00
71716;BME280;59568;52.128;5.434;2024-03-23T11:19:59;100973.75;;;10.42;100.00
71716;BME280;59568;52.128;5.434;2024-03-23T11:25:19;100975.38;;;10.13;100.00
71716;BME280;59568;52.128;5.434;2024-03-23T11:27:50;100971.38;;;9.68;100.00
71716;BME280;59568;52.128;5.434;2024-03-23T11:30:24;100974.66;;;9.54;100.00
71716;BME280;59568;52.128;5.434;2024-03-23T11:32:55;100975.31;;;9.65;100.00
71716;BME280;59568;52.128;5.434;2024-03-23T11:35:33;100968.72;;;10.02;100.00
71716;BME280;59568;52.128;5.434;2024-03-23T11:38:10;100973.44;;;10.24;100.00
71716;BME280;59568;52.128;5.434;2024-03-23T11:40:41;100961.06;;;10.35;100.00
71716;BME280;59568;52.128;5.434;2024-03-23T11:43:18;100960.06;;;10.26;100.00
71716;BME280;59568;52.128;5.434;2024-03-23T11:48:17;100948.16;;;10.82;100.00
71716;BME280;59568;52.128;5.434;2024-03-23T11:50:45;100948.00;;;10.92;100.00
71716;BME280;59568;52.128;5.434;2024-03-23T11:58:12;100941.38;;;10.81;100.00
71716;BME280;59568;52.128;5.434;2024-03-23T12:00:39;100932.16;;;10.26;100.00
71716;BME280;59568;52.128;5.434;2024-03-23T12:03:05;100949.38;;;9.79;100.00
71716;BME280;59568;52.128;5.434;2024-03-23T12:05:32;100947.47;;;9.60;100.00
71716;BME280;59568;52.128;5.434;2024-03-23T12:10:44;100948.47;;;10.13;100.00
71716;BME280;59568;52.128;5.434;2024-03-23T12:13:10;100953.47;;;10.09;100.00
71716;BME280;59568;52.128;5.434;2024-03-23T12:15:36;100936.88;;;9.76;100.00
71716;BME280;59568;52.128;5.434;2024-03-23T12:18:09;100950.44;;;9.49;100.00
71716;BME280;59568;52.128;5.434;2024-03-23T12:20:38;100947.19;;;9.33;100.00
71716;BME280;59568;52.128;5.434;2024-03-23T12:23:09;100937.94;;;9.16;100.00
71716;BME280;59568;52.128;5.434;2024-03-23T12:25:35;100932.53;;;9.66;100.00
71716;BME280;59568;52.128;5.434;2024-03-23T12:28:02;100930.34;;;10.22;100.00
71716;BME280;59568;52.128;5.434;2024-03-23T12:30:28;100915.31;;;10.75;100.00
71716;BME280;59568;52.128;5.434;2024-03-23T12:32:53;100914.59;;;11.03;100.00
71716;BME280;59568;52.128;5.434;2024-03-23T12:35:19;100920.09;;;10.87;100.00
71716;BME280;59568;52.128;5.434;2024-03-23T12:37:45;100920.88;;;10.50;100.00
71716;BME280;59568;52.128;5.434;2024-03-23T12:40:11;100919.47;;;10.38;100.00
71716;BME280;59568;52.128;5.434;2024-03-23T12:42:36;100919.03;;;10.31;100.00
71716;BME280;59568;52.128;5.434;2024-03-23T12:45:03;100921.47;;;10.23;100.00
71716;BME280;59568;52.128;5.434;2024-03-23T12:47:32;100911.25;;;10.26;100.00
71716;BME280;59568;52.128;5.434;2024-03-23T12:49:58;100915.31;;;10.75;100.00
71716;BME280;59568;52.128;5.434;2024-03-23T12:52:23;100916.31;;;10.61;100.00
71716;BME280;59568;52.128;5.434;2024-03-23T12:54:56;100918.59;;;10.24;100.00
71716;BME280;59568;52.128;5.434;2024-03-23T12:57:27;100922.81;;;9.96;100.00
71716;BME280;59568;52.128;5.434;2024-03-23T12:59:54;100917.03;;;10.23;100.00
71716;BME280;59568;52.128;5.434;2024-03-23T13:02:22;100918.28;;;10.69;100.00
71716;BME280;59568;52.128;5.434;2024-03-23T13:04:51;100918.75;;;10.90;100.00
71716;BME280;59568;52.128;5.434;2024-03-23T13:07:18;100915.31;;;10.75;100.00
71716;BME280;59568;52.128;5.434;2024-03-23T13:09:44;100914.31;;;10.71;100.00
71716;BME280;59568;52.128;5.434;2024-03-23T13:12:10;100920.63;;;10.27;100.00
71716;BME280;59568;52.128;5.434;2024-03-23T13:14:39;100920.81;;;9.88;100.00
71716;BME280;59568;52.128;5.434;2024-03-23T13:17:05;100911.16;;;9.64;100.00
71716;BME280;59568;52.128;5.434;2024-03-23T13:19:31;100907.38;;;9.75;100.00
71716;BME280;59568;52.128;5.434;2024-03-23T13:21:58;100914.25;;;10.38;100.00
71716;BME280;59568;52.128;5.434;2024-03-23T13:24:24;100911.34;;;10.40;100.00
71716;BME280;59568;52.128;5.434;2024-03-23T13:26:51;100945.66;;;10.09;100.00
71716;BME280;59568;52.128;5.434;2024-03-23T13:29:20;100948.28;;;9.56;100.00
71716;BME280;59568;52.128;5.434;2024-03-23T13:31:46;100970.38;;;9.00;100.00
71716;BME280;59568;52.128;5.434;2024-03-23T13:34:13;100956.78;;;8.64;100.00
71716;BME280;59568;52.128;5.434;2024-03-23T13:36:44;100939.97;;;8.35;100.00
71716;BME280;59568;52.128;5.434;2024-03-23T13:39:10;100926.44;;;8.33;100.00
71716;BME280;59568;52.128;5.434;2024-03-23T13:41:41;100930.28;;;8.46;100.00
71716;BME280;59568;52.128;5.434;2024-03-23T13:44:08;100917.94;;;8.67;100.00
71716;BME280;59568;52.128;5.434;2024-03-23T13:46:35;100919.66;;;9.22;100.00
71716;BME280;59568;52.128;5.434;2024-03-23T13:49:01;100913.47;;;9.66;100.00
71716;BME280;59568;52.128;5.434;2024-03-23T13:51:27;100914.47;;;9.94;100.00
71716;BME280;59568;52.128;5.434;2024-03-23T13:53:56;100916.31;;;9.93;100.00
71716;BME280;59568;52.128;5.434;2024-03-23T13:56:23;100910.16;;;9.60;100.00
71716;BME280;59568;52.128;5.434;2024-03-23T13:58:48;100908.72;;;9.44;100.00
71716;BME280;59568;52.128;5.434;2024-03-23T14:01:15;100910.06;;;9.41;100.00
71716;BME280;59568;52.128;5.434;2024-03-23T14:03:42;100902.47;;;9.45;100.00
71716;BME280;59568;52.128;5.434;2024-03-23T14:06:09;100901.03;;;9.57;100.00
71716;BME280;59568;52.128;5.434;2024-03-23T14:08:37;100902.50;;;9.69;100.00
71716;BME280;59568;52.128;5.434;2024-03-23T14:11:05;100894.28;;;10.05;100.00
71716;BME280;59568;52.128;5.434;2024-03-23T14:13:31;100892.38;;;10.34;100.00
71716;BME280;59568;52.128;5.434;2024-03-23T14:15:58;100899.63;;;10.56;100.00
71716;BME280;59568;52.128;5.434;2024-03-23T14:18:24;100886.00;;;10.59;100.00
71716;BME280;59568;52.128;5.434;2024-03-23T14:20:52;100889.97;;;10.57;100.00
71716;BME280;59568;52.128;5.434;2024-03-23T14:23:19;100877.03;;;10.66;100.00
71716;BME280;59568;52.128;5.434;2024-03-23T14:25:45;100878.66;;;10.62;100.00
71716;BME280;59568;52.128;5.434;2024-03-23T14:28:11;100879.13;;;10.26;100.00
71716;BME280;59568;52.128;5.434;2024-03-23T14:30:41;100885.75;;;10.18;100.00
71716;BME280;59568;52.128;5.434;2024-03-23T14:33:07;100869.84;;;9.95;100.00